createdAt,value
2018-09-12T00:00:26.411Z,17.30
2018-09-12T00:02:54.836Z,17.30
2018-09-12T00:05:23.268Z,17.30
2018-09-12T00:07:51.755Z,17.20
2018-09-12T00:10:20.256Z,17.20
2018-09-12T00:12:48.709Z,17.20
2018-09-12T00:15:17.133Z,17.10
2018-09-12T00:17:45.632Z,17.20
2018-09-12T00:20:14.035Z,17.10
2018-09-12T00:22:42.472Z,17.10
2018-09-12T00:25:11.020Z,17.10
2018-09-12T00:27:39.516Z,17.10
2018-09-12T00:30:08.070Z,17.00
2018-09-12T00:32:36.655Z,17.00
2018-09-12T00:35:05.298Z,17.00
2018-09-12T00:37:33.978Z,16.90
2018-09-12T00:40:02.632Z,16.90
2018-09-12T00:42:31.142Z,16.90
2018-09-12T00:44:59.619Z,16.80
2018-09-12T00:47:28.063Z,16.80
2018-09-12T00:49:56.526Z,16.80
2018-09-12T00:52:25.101Z,16.80
2018-09-12T00:54:53.542Z,16.80
2018-09-12T00:57:22.075Z,16.80
2018-09-12T00:59:50.625Z,16.70
2018-09-12T01:02:19.278Z,16.70
2018-09-12T01:04:47.776Z,16.60
2018-09-12T01:07:16.328Z,16.60
2018-09-12T01:09:44.950Z,16.60
2018-09-12T01:12:13.758Z,16.60
2018-09-12T01:14:42.428Z,16.60
2018-09-12T01:17:10.869Z,16.50
2018-09-12T01:19:39.308Z,16.50
2018-09-12T01:22:07.798Z,16.50
2018-09-12T01:24:36.317Z,16.50
2018-09-12T01:27:04.756Z,16.50
2018-09-12T01:29:33.321Z,16.40
2018-09-12T01:32:01.899Z,16.40
2018-09-12T01:34:30.584Z,16.40
2018-09-12T01:36:59.163Z,16.30
2018-09-12T01:39:28.060Z,16.30
2018-09-12T01:41:56.685Z,16.30
2018-09-12T01:44:25.215Z,16.30
2018-09-12T01:46:54.277Z,16.30
2018-09-12T01:49:22.727Z,16.30
2018-09-12T01:51:51.521Z,16.20
2018-09-12T01:54:20.129Z,16.20
2018-09-12T01:56:48.575Z,16.20
2018-09-12T01:59:17.078Z,16.20
2018-09-12T02:01:45.960Z,16.20
2018-09-12T02:04:14.503Z,16.10
2018-09-12T02:06:43.043Z,16.10
2018-09-12T02:09:14.089Z,16.10
2018-09-12T02:11:42.711Z,16.10
2018-09-12T02:14:11.196Z,16.10
2018-09-12T02:16:39.645Z,16.10
2018-09-12T02:19:08.095Z,16.00
2018-09-12T02:21:36.524Z,16.00
2018-09-12T02:24:04.956Z,15.90
2018-09-12T02:26:33.449Z,15.90
2018-09-12T02:29:01.916Z,15.90
2018-09-12T02:31:30.373Z,15.80
2018-09-12T02:33:58.928Z,15.80
2018-09-12T02:36:28.824Z,15.70
2018-09-12T02:38:58.796Z,15.70
2018-09-12T02:41:27.273Z,15.70
2018-09-12T02:43:56.024Z,15.70
2018-09-12T02:46:24.536Z,15.60
2018-09-12T02:48:53.573Z,15.60
2018-09-12T02:51:22.012Z,15.60
2018-09-12T02:53:50.564Z,15.60
2018-09-12T02:56:19.308Z,15.50
2018-09-12T02:58:48.313Z,15.50
2018-09-12T03:01:16.711Z,15.50
2018-09-12T03:03:45.108Z,15.50
2018-09-12T03:06:13.513Z,15.40
2018-09-12T03:08:41.944Z,15.40
2018-09-12T03:11:10.413Z,15.40
2018-09-12T03:13:38.852Z,15.40
2018-09-12T03:16:07.317Z,15.40
2018-09-12T03:18:35.830Z,15.40
2018-09-12T03:21:04.383Z,15.40
2018-09-12T03:23:32.657Z,15.40
2018-09-12T03:26:01.082Z,15.30
2018-09-12T03:28:29.526Z,15.30
2018-09-12T03:30:57.941Z,15.20
2018-09-12T03:33:26.345Z,15.20
2018-09-12T03:35:54.733Z,15.20
2018-09-12T03:38:23.184Z,15.20
2018-09-12T03:40:51.631Z,15.20
2018-09-12T03:43:20.048Z,15.10
2018-09-12T03:45:48.447Z,15.10
2018-09-12T03:48:16.868Z,15.10
2018-09-12T03:50:45.278Z,15.10
2018-09-12T03:53:13.761Z,15.10
2018-09-12T03:55:42.250Z,15.10
2018-09-12T03:58:10.667Z,15.00
2018-09-12T04:00:39.185Z,15.00
2018-09-12T04:03:07.629Z,15.00
2018-09-12T04:05:36.008Z,15.00
2018-09-12T04:08:04.493Z,15.00
2018-09-12T04:10:32.939Z,15.00
2018-09-12T04:13:01.376Z,15.00
2018-09-12T04:15:29.804Z,15.00
2018-09-12T04:17:58.192Z,15.00
2018-09-12T04:20:26.702Z,15.00
2018-09-12T04:22:55.103Z,15.00
2018-09-12T04:25:23.533Z,15.00
2018-09-12T04:27:51.988Z,15.00
2018-09-12T04:30:20.458Z,15.00
2018-09-12T04:32:48.970Z,15.00
2018-09-12T04:35:17.395Z,15.00
2018-09-12T04:37:45.800Z,15.00
2018-09-12T04:40:14.239Z,15.00
2018-09-12T04:42:42.668Z,15.00
2018-09-12T04:45:11.033Z,15.00
2018-09-12T04:47:39.473Z,15.00
2018-09-12T04:50:07.968Z,14.90
2018-09-12T04:52:36.369Z,15.00
2018-09-12T04:55:04.794Z,14.90
2018-09-12T04:57:33.177Z,14.90
2018-09-12T05:00:01.597Z,14.80
2018-09-12T05:02:30.000Z,14.90
2018-09-12T05:04:58.413Z,14.80
2018-09-12T05:07:27.256Z,14.90
2018-09-12T05:09:55.887Z,14.90
2018-09-12T05:12:24.310Z,14.90
2018-09-12T05:14:52.744Z,15.00
2018-09-12T05:17:21.169Z,15.00
2018-09-12T05:19:49.553Z,14.90
2018-09-12T05:22:17.953Z,14.90
2018-09-12T05:24:46.372Z,14.90
2018-09-12T05:27:14.832Z,14.90
2018-09-12T05:29:43.252Z,14.90
2018-09-12T05:32:11.910Z,14.90
2018-09-12T05:34:40.289Z,14.90
2018-09-12T05:37:08.676Z,15.00
2018-09-12T05:39:37.109Z,15.00
2018-09-12T05:42:05.653Z,15.00
2018-09-12T05:44:34.060Z,15.00
2018-09-12T05:47:02.477Z,15.10
2018-09-12T05:49:30.945Z,15.30
2018-09-12T05:51:59.373Z,15.30
2018-09-12T05:54:27.795Z,15.30
2018-09-12T05:56:56.176Z,15.40
2018-09-12T05:59:24.573Z,15.40
2018-09-12T06:01:52.981Z,15.40
2018-09-12T06:04:21.519Z,15.40
2018-09-12T06:06:49.983Z,15.40
2018-09-12T06:09:18.389Z,15.40
2018-09-12T06:11:46.783Z,15.50
2018-09-12T06:14:15.253Z,15.50
2018-09-12T06:16:43.589Z,15.60
2018-09-12T06:19:11.988Z,15.60
2018-09-12T06:21:40.384Z,15.70
2018-09-12T06:24:09.101Z,15.80
2018-09-12T06:26:37.548Z,15.80
2018-09-12T06:29:06.112Z,16.00
2018-09-12T06:31:34.507Z,16.10
2018-09-12T06:34:02.911Z,16.10
2018-09-12T06:36:31.289Z,16.20
2018-09-12T06:38:59.726Z,16.30
2018-09-12T06:41:28.170Z,16.30
2018-09-12T06:43:56.610Z,16.40
2018-09-12T06:46:25.078Z,16.50
2018-09-12T06:48:53.484Z,16.60
2018-09-12T06:51:22.216Z,16.70
2018-09-12T06:53:50.579Z,16.70
2018-09-12T06:56:19.025Z,16.80
2018-09-12T06:58:47.421Z,17.00
2018-09-12T07:01:15.869Z,17.00
2018-09-12T07:03:44.284Z,17.20
2018-09-12T07:06:12.756Z,17.40
2018-09-12T07:08:41.208Z,17.40
2018-09-12T07:11:09.664Z,17.60
2018-09-12T07:13:38.057Z,17.60
2018-09-12T07:16:06.450Z,17.70
2018-09-12T07:18:34.912Z,17.80
2018-09-12T07:21:03.449Z,17.90
2018-09-12T07:23:31.957Z,18.00
2018-09-12T07:26:00.363Z,18.10
2018-09-12T07:28:28.779Z,18.20
2018-09-12T07:30:57.196Z,18.30
2018-09-12T07:33:25.588Z,18.40
2018-09-12T07:35:54.015Z,18.40
2018-09-12T07:38:22.410Z,18.50
2018-09-12T07:40:51.033Z,18.60
2018-09-12T07:43:19.448Z,18.60
2018-09-12T07:45:47.861Z,18.70
2018-09-12T07:48:16.256Z,18.90
2018-09-12T07:50:47.955Z,19.00
2018-09-12T07:53:17.084Z,19.10
2018-09-12T07:55:45.501Z,19.10
2018-09-12T07:58:13.889Z,19.20
2018-09-12T08:00:42.329Z,19.30
2018-09-12T08:03:10.880Z,19.40
2018-09-12T08:05:39.389Z,19.60
2018-09-12T08:08:07.834Z,19.80
2018-09-12T08:10:36.271Z,19.90
2018-09-12T08:13:04.732Z,20.00
2018-09-12T08:15:33.154Z,20.30
2018-09-12T08:18:01.570Z,20.50
2018-09-12T08:20:29.977Z,20.40
2018-09-12T08:22:58.397Z,20.60
2018-09-12T08:25:26.853Z,20.60
2018-09-12T08:27:55.245Z,20.70
2018-09-12T08:30:23.740Z,20.80
2018-09-12T08:32:52.146Z,20.90
2018-09-12T08:35:20.540Z,21.00
2018-09-12T08:37:48.937Z,21.10
2018-09-12T08:40:17.356Z,21.10
2018-09-12T08:42:45.912Z,21.00
2018-09-12T08:45:14.298Z,21.10
2018-09-12T08:47:42.769Z,21.20
2018-09-12T08:50:11.140Z,21.20
2018-09-12T08:52:39.688Z,21.30
2018-09-12T08:55:08.128Z,21.40
2018-09-12T08:57:36.596Z,21.30
2018-09-12T09:00:05.705Z,21.30
2018-09-12T09:02:34.126Z,21.40
2018-09-12T09:05:02.624Z,21.50
2018-09-12T09:07:31.085Z,21.60
2018-09-12T09:09:59.503Z,21.40
2018-09-12T09:12:27.904Z,21.60
2018-09-12T09:14:56.673Z,21.70
2018-09-12T09:17:25.205Z,21.70
2018-09-12T09:19:53.577Z,21.70
2018-09-12T09:22:21.983Z,21.90
2018-09-12T09:24:50.432Z,22.00
2018-09-12T09:27:18.812Z,22.10
2018-09-12T09:29:47.212Z,22.20
2018-09-12T09:32:15.621Z,22.10
2018-09-12T09:34:44.012Z,22.00
2018-09-12T09:37:12.451Z,22.00
2018-09-12T09:39:40.861Z,22.10
2018-09-12T09:42:09.306Z,22.20
2018-09-12T09:44:37.740Z,22.20
2018-09-12T09:47:06.161Z,22.40
2018-09-12T09:49:34.654Z,22.60
2018-09-12T09:52:03.065Z,22.80
2018-09-12T09:54:31.526Z,22.70
2018-09-12T09:56:59.902Z,22.70
2018-09-12T09:59:28.389Z,22.60
2018-09-12T10:02:02.092Z,22.70
2018-09-12T10:04:35.821Z,22.80
2018-09-12T10:07:09.504Z,23.10
2018-09-12T10:09:37.966Z,23.30
2018-09-12T10:12:06.411Z,23.10
2018-09-12T10:14:34.824Z,23.00
2018-09-12T10:17:03.299Z,23.20
2018-09-12T10:19:31.684Z,23.30
2018-09-12T10:22:00.128Z,23.40
2018-09-12T10:24:28.535Z,23.50
2018-09-12T10:26:56.964Z,23.50
2018-09-12T10:29:25.339Z,23.50
2018-09-12T10:31:53.836Z,23.50
2018-09-12T10:34:22.233Z,23.50
2018-09-12T10:36:50.953Z,23.70
2018-09-12T10:39:19.450Z,23.80
2018-09-12T10:41:48.017Z,23.90
2018-09-12T10:44:16.431Z,23.70
2018-09-12T10:46:44.851Z,23.50
2018-09-12T10:49:13.232Z,23.30
2018-09-12T10:51:41.656Z,23.20
2018-09-12T10:54:10.012Z,23.30
2018-09-12T10:56:38.426Z,23.40
2018-09-12T10:59:06.895Z,23.70
2018-09-12T11:01:35.258Z,24.00
2018-09-12T11:04:03.660Z,23.80
2018-09-12T11:06:32.068Z,23.80
2018-09-12T11:09:00.476Z,23.60
2018-09-12T11:11:28.900Z,23.70
2018-09-12T11:13:57.485Z,23.70
2018-09-12T11:16:25.910Z,23.60
2018-09-12T11:18:54.563Z,23.60
2018-09-12T11:21:23.004Z,23.60
2018-09-12T11:23:51.417Z,23.60
2018-09-12T11:26:19.833Z,23.60
2018-09-12T11:28:48.397Z,23.50
2018-09-12T11:31:16.798Z,23.50
2018-09-12T11:33:45.205Z,23.40
2018-09-12T11:36:13.691Z,23.40
2018-09-12T11:38:42.104Z,23.40
2018-09-12T11:41:10.536Z,23.40
2018-09-12T11:43:38.994Z,23.40
2018-09-12T11:46:07.672Z,23.40
2018-09-12T11:48:36.072Z,23.40
2018-09-12T11:51:04.477Z,23.70
2018-09-12T11:53:32.940Z,23.80
2018-09-12T11:56:01.370Z,23.90
2018-09-12T11:58:29.805Z,24.10
2018-09-12T12:00:58.582Z,24.20
2018-09-12T12:03:27.113Z,24.30
2018-09-12T12:05:55.567Z,24.50
2018-09-12T12:08:23.948Z,24.60
2018-09-12T12:10:52.410Z,24.60
2018-09-12T12:13:20.802Z,24.70
2018-09-12T12:15:49.231Z,24.70
2018-09-12T12:18:17.659Z,24.80
2018-09-12T12:20:46.115Z,24.80
2018-09-12T12:23:14.638Z,24.70
2018-09-12T12:25:43.020Z,24.70
2018-09-12T12:28:11.423Z,24.90
2018-09-12T12:30:39.869Z,24.80
2018-09-12T12:33:08.288Z,24.70
2018-09-12T12:35:36.907Z,24.60
2018-09-12T12:38:05.573Z,24.70
2018-09-12T12:40:34.009Z,24.40
2018-09-12T12:43:02.431Z,24.40
2018-09-12T12:45:30.897Z,24.60
2018-09-12T12:47:59.297Z,24.70
2018-09-12T12:50:27.749Z,24.80
2018-09-12T12:52:56.264Z,24.70
2018-09-12T12:55:24.685Z,24.80
2018-09-12T12:57:53.113Z,24.60
2018-09-12T13:00:21.581Z,24.60
2018-09-12T13:02:49.968Z,24.40
2018-09-12T13:05:18.403Z,24.30
2018-09-12T13:07:46.786Z,24.30
2018-09-12T13:10:15.213Z,24.30
2018-09-12T13:12:43.629Z,24.40
2018-09-12T13:15:12.033Z,24.50
2018-09-12T13:17:40.473Z,24.40
2018-09-12T13:20:08.957Z,24.50
2018-09-12T13:22:37.347Z,24.50
2018-09-12T13:25:06.084Z,24.60
2018-09-12T13:27:34.551Z,24.50
2018-09-12T13:30:03.009Z,24.40
2018-09-12T13:32:32.068Z,24.50
2018-09-12T13:35:00.535Z,24.50
2018-09-12T13:37:28.980Z,24.60
2018-09-12T13:39:57.369Z,24.80
2018-09-12T13:42:25.752Z,24.90
2018-09-12T13:44:54.358Z,25.00
2018-09-12T13:47:22.748Z,25.10
2018-09-12T13:49:51.272Z,24.90
2018-09-12T13:52:19.680Z,24.80
2018-09-12T13:54:48.080Z,25.00
2018-09-12T13:57:16.464Z,25.20
2018-09-12T13:59:44.920Z,25.30
2018-09-12T14:02:13.315Z,25.30
2018-09-12T14:04:41.713Z,25.20
2018-09-12T14:07:10.233Z,25.10
2018-09-12T14:09:38.666Z,25.30
2018-09-12T14:12:07.085Z,25.30
2018-09-12T14:14:35.501Z,25.50
2018-09-12T14:17:03.978Z,25.60
2018-09-12T14:19:32.542Z,25.70
2018-09-12T14:22:00.968Z,25.70
2018-09-12T14:24:29.425Z,25.70
2018-09-12T14:26:57.859Z,25.50
2018-09-12T14:29:26.268Z,25.40
2018-09-12T14:31:54.801Z,25.20
2018-09-12T14:34:23.289Z,25.30
2018-09-12T14:36:51.802Z,25.30
2018-09-12T14:39:20.373Z,25.30
2018-09-12T14:41:48.727Z,25.20
2018-09-12T14:44:17.124Z,24.40
2018-09-12T14:46:45.530Z,24.10
2018-09-12T14:49:13.918Z,24.00
2018-09-12T14:51:42.333Z,23.80
2018-09-12T14:54:10.926Z,23.80
2018-09-12T14:56:39.346Z,23.60
2018-09-12T14:59:07.856Z,23.60
2018-09-12T15:01:36.274Z,23.50
2018-09-12T15:04:04.745Z,23.60
2018-09-12T15:06:33.249Z,23.10
2018-09-12T15:09:02.210Z,23.00
2018-09-12T15:11:30.609Z,23.00
2018-09-12T15:13:59.180Z,23.10
2018-09-12T15:16:27.966Z,23.10
2018-09-12T15:18:56.618Z,23.20
2018-09-12T15:21:25.097Z,23.30
2018-09-12T15:23:53.492Z,23.20
2018-09-12T15:26:22.017Z,22.90
2018-09-12T15:28:50.569Z,23.00
2018-09-12T15:31:19.165Z,22.80
2018-09-12T15:33:47.776Z,22.60
2018-09-12T15:36:16.158Z,22.10
2018-09-12T15:38:44.659Z,21.90
2018-09-12T15:41:13.197Z,21.60
2018-09-12T15:43:41.766Z,21.60
2018-09-12T15:46:10.223Z,21.60
2018-09-12T15:48:38.799Z,21.80
2018-09-12T15:51:07.261Z,21.90
2018-09-12T15:53:35.797Z,21.80
2018-09-12T15:56:04.460Z,21.70
2018-09-12T15:58:33.044Z,21.40
2018-09-12T16:01:01.745Z,21.40
2018-09-12T16:03:30.260Z,21.40
2018-09-12T16:05:58.714Z,21.20
2018-09-12T16:08:27.225Z,21.00
2018-09-12T16:10:55.706Z,20.90
2018-09-12T16:13:24.129Z,20.90
2018-09-12T16:15:52.608Z,20.80
2018-09-12T16:18:21.050Z,20.90
2018-09-12T16:20:49.640Z,20.80
2018-09-12T16:23:18.024Z,20.70
2018-09-12T16:25:46.696Z,20.80
2018-09-12T16:28:15.312Z,20.80
2018-09-12T16:30:43.901Z,20.70
2018-09-12T16:33:12.559Z,20.60
2018-09-12T16:35:41.110Z,20.50
2018-09-12T16:38:09.689Z,20.50
2018-09-12T16:40:38.172Z,20.50
2018-09-12T16:43:06.892Z,20.30
2018-09-12T16:45:35.364Z,20.20
2018-09-12T16:48:03.875Z,20.00
2018-09-12T16:50:32.519Z,20.00
2018-09-12T16:53:01.182Z,20.00
2018-09-12T16:55:29.656Z,19.70
2018-09-12T16:57:58.147Z,19.80
2018-09-12T17:00:26.624Z,19.80
2018-09-12T17:02:55.097Z,19.70
2018-09-12T17:05:23.532Z,19.60
2018-09-12T17:07:52.132Z,19.50
2018-09-12T17:10:20.560Z,19.30
2018-09-12T17:12:49.042Z,19.30
2018-09-12T17:15:17.456Z,19.20
2018-09-12T17:17:45.897Z,19.20
2018-09-12T17:20:14.409Z,19.10
2018-09-12T17:22:43.112Z,19.10
2018-09-12T17:25:11.690Z,19.10
2018-09-12T17:27:40.200Z,19.00
2018-09-12T17:30:08.725Z,18.90
2018-09-12T17:32:37.193Z,18.90
2018-09-12T17:35:05.716Z,18.80
2018-09-12T17:37:34.189Z,18.80
2018-09-12T17:40:02.681Z,18.70
2018-09-12T17:42:31.144Z,18.70
2018-09-12T17:44:59.615Z,18.70
2018-09-12T17:47:28.236Z,18.80
2018-09-12T17:49:56.720Z,18.60
2018-09-12T17:52:25.183Z,18.50
2018-09-12T17:54:53.629Z,18.50
2018-09-12T17:57:22.080Z,18.40
2018-09-12T17:59:50.673Z,18.40
2018-09-12T18:02:19.164Z,18.30
2018-09-12T18:04:47.781Z,18.30
2018-09-12T18:07:16.272Z,18.30
2018-09-12T18:09:44.697Z,18.30
2018-09-12T18:12:13.138Z,18.20
2018-09-12T18:14:41.592Z,18.20
2018-09-12T18:17:10.139Z,18.10
2018-09-12T18:19:38.597Z,18.00
2018-09-12T18:22:07.161Z,17.90
2018-09-12T18:24:35.769Z,17.80
2018-09-12T18:27:04.448Z,17.80
2018-09-12T18:29:32.954Z,17.70
2018-09-12T18:32:01.433Z,17.60
2018-09-12T18:34:29.905Z,17.60
2018-09-12T18:36:58.485Z,17.60
2018-09-12T18:39:27.160Z,17.60
2018-09-12T18:41:55.629Z,17.60
2018-09-12T18:44:24.251Z,17.50
2018-09-12T18:46:52.882Z,17.50
2018-09-12T18:49:21.549Z,17.40
2018-09-12T18:51:50.142Z,17.50
2018-09-12T18:54:18.558Z,17.50
2018-09-12T18:56:47.031Z,17.40
2018-09-12T18:59:15.484Z,17.40
2018-09-12T19:01:44.007Z,17.30
2018-09-12T19:04:12.420Z,17.30
2018-09-12T19:06:41.097Z,17.30
2018-09-12T19:09:11.021Z,17.30
2018-09-12T19:11:39.487Z,17.30
2018-09-12T19:14:08.415Z,17.20
2018-09-12T19:16:37.725Z,17.10
2018-09-12T19:19:06.360Z,17.10
2018-09-12T19:21:35.969Z,17.20
2018-09-12T19:24:04.698Z,17.20
2018-09-12T19:26:33.371Z,17.20
2018-09-12T19:29:01.824Z,17.20
2018-09-12T19:31:30.316Z,17.20
2018-09-12T19:33:58.935Z,17.20
2018-09-12T19:36:27.343Z,17.10
2018-09-12T19:38:55.841Z,17.20
2018-09-12T19:41:24.264Z,17.20
2018-09-12T19:43:52.707Z,17.20
2018-09-12T19:46:21.172Z,17.20
2018-09-12T19:48:49.607Z,17.10
2018-09-12T19:51:18.241Z,17.10
2018-09-12T19:53:46.843Z,17.30
2018-09-12T19:56:15.919Z,17.30
2018-09-12T19:58:45.234Z,17.10
2018-09-12T20:01:14.088Z,17.10
2018-09-12T20:03:42.759Z,17.10
2018-09-12T20:06:11.869Z,17.00
2018-09-12T20:08:40.521Z,17.10
2018-09-12T20:11:08.909Z,17.20
2018-09-12T20:13:37.357Z,17.00
2018-09-12T20:16:05.859Z,17.10
2018-09-12T20:18:34.381Z,17.00
2018-09-12T20:21:02.818Z,17.00
2018-09-12T20:23:31.314Z,17.00
2018-09-12T20:25:59.814Z,17.00
2018-09-12T20:28:28.500Z,17.00
2018-09-12T20:30:56.991Z,17.00
2018-09-12T20:33:25.526Z,17.00
2018-09-12T20:35:53.964Z,17.00
2018-09-12T20:38:22.379Z,17.00
2018-09-12T20:40:51.038Z,17.00
2018-09-12T20:43:19.793Z,17.00
2018-09-12T20:45:48.389Z,16.90
2018-09-12T20:48:16.858Z,16.90
2018-09-12T20:50:45.398Z,16.90
2018-09-12T20:53:13.842Z,16.80
2018-09-12T20:55:42.308Z,16.80
2018-09-12T20:58:10.749Z,16.80
2018-09-12T21:00:39.242Z,16.80
2018-09-12T21:03:07.877Z,16.70
2018-09-12T21:05:36.385Z,16.70
2018-09-12T21:08:04.890Z,16.60
2018-09-12T21:10:33.332Z,16.70
2018-09-12T21:13:01.851Z,16.70
2018-09-12T21:15:30.495Z,16.80
2018-09-12T21:17:58.993Z,16.80
2018-09-12T21:20:27.491Z,16.70
2018-09-12T21:22:55.988Z,16.80
2018-09-12T21:25:24.744Z,16.70
2018-09-12T21:27:53.226Z,16.80
2018-09-12T21:30:22.074Z,16.70
2018-09-12T21:32:50.452Z,16.70
2018-09-12T21:35:18.967Z,16.70
2018-09-12T21:37:47.424Z,16.80
2018-09-12T21:40:15.868Z,16.80
2018-09-12T21:42:44.416Z,16.80
2018-09-12T21:45:12.880Z,16.90
2018-09-12T21:47:41.438Z,16.90
2018-09-12T21:50:09.870Z,17.00
2018-09-12T21:52:38.312Z,17.00
2018-09-12T21:55:06.737Z,17.00
2018-09-12T21:57:35.518Z,16.90
2018-09-12T22:00:05.117Z,16.90
2018-09-12T22:02:33.822Z,16.80
2018-09-12T22:05:02.302Z,16.80
2018-09-12T22:07:30.964Z,16.70
2018-09-12T22:09:59.836Z,16.80
2018-09-12T22:12:28.249Z,16.70
2018-09-12T22:14:56.853Z,16.70
2018-09-12T22:17:25.322Z,16.80
2018-09-12T22:19:53.756Z,16.70
2018-09-12T22:22:22.193Z,16.70
2018-09-12T22:24:50.630Z,16.70
2018-09-12T22:27:19.076Z,16.60
2018-09-12T22:29:48.465Z,16.70
2018-09-12T22:32:16.885Z,16.60
2018-09-12T22:34:45.284Z,16.60
2018-09-12T22:37:13.688Z,16.60
2018-09-12T22:39:42.142Z,16.60
2018-09-12T22:42:10.556Z,16.50
2018-09-12T22:44:39.316Z,16.50
2018-09-12T22:47:07.883Z,16.50
2018-09-12T22:49:36.616Z,16.50
2018-09-12T22:52:05.103Z,16.40
2018-09-12T22:54:33.521Z,16.50
2018-09-12T22:57:01.939Z,16.40
2018-09-12T22:59:30.342Z,16.40
2018-09-12T23:01:58.860Z,16.40
2018-09-12T23:04:27.264Z,16.40
2018-09-12T23:06:55.690Z,16.40
2018-09-12T23:09:24.108Z,16.50
2018-09-12T23:11:52.652Z,16.50
2018-09-12T23:14:21.048Z,16.50
2018-09-12T23:16:49.465Z,16.50
2018-09-12T23:19:17.858Z,16.50
2018-09-12T23:21:46.341Z,16.40
2018-09-12T23:24:14.899Z,16.50
2018-09-12T23:26:44.267Z,16.40
2018-09-12T23:29:12.869Z,16.40
2018-09-12T23:31:41.428Z,16.40
2018-09-12T23:34:09.824Z,16.40
2018-09-12T23:36:38.350Z,16.30
2018-09-12T23:39:09.601Z,16.30
2018-09-12T23:41:38.094Z,16.40
2018-09-12T23:44:06.583Z,16.40
2018-09-12T23:46:35.040Z,16.50
2018-09-12T23:49:03.554Z,16.40
2018-09-12T23:51:31.947Z,16.40
2018-09-12T23:54:00.359Z,16.40
2018-09-12T23:56:28.733Z,16.40
2018-09-12T23:58:57.189Z,16.40
